Due to severe server failure at the provider, not all demo sites are operational. Will take some days to rebuilt everything.

Demonstration site - Click on the  for more information

This is an optional block. Switch it on/off in your settings-file: $SITE['bannerTop'] = false; or $SITE['bannerBottom'] = false;

You can display ads, any other important text or photo’s using text / html or PHP code.

You can place one or more at the top and or bottom and it can all be different for content / size .



Visit our other weather sites:

Template documentation
and downloads

And another site



Nearby METAR Reports

   
EBAW - Antwerp
Updated: 16-06-2019 19:20
Clear  
Clear  
   Wind: WSW 9.3 km/h
Wind: WSW 9.3 km/h
Temperature: 20°C
Dew Point: 14°C
Humidity: 69%
Barometer: 1020 hPa
Visibility: More than 10 km
Cloud details: Clear ft
EBAW 161720Z 24005KT 220V280 CAVOK 20/14 Q1020 NOSIG
EBLG - Liège
Updated: 16-06-2019 19:20
Few Clouds  
Few Clouds  
   Wind: WSW 9.3 km/h
Wind: WSW 9.3 km/h
Temperature: 20°C
Dew Point: 11°C
Humidity: 56%
Barometer: 1021 hPa
Clouds: Few Clouds
Visibility: More than 10 km
Cloud details: Few Clouds 3600 ft
EBLG 161720Z 24005KT 220V280 9999 FEW036 20/11 Q1021 NOSIG
EBCV - Mons/Bergen
Updated: 16-06-2019 18:55
Few Clouds  
Few Clouds  
   Wind: SSW 5.6 km/h
Wind: SSW 5.6 km/h
Temperature: 20°C
Dew Point: 14°C
Humidity: 69%
Barometer: 1021 hPa
Clouds: Few Clouds
Cloud details: Few Clouds 7000 ft
EBCV 161655Z AUTO 20003KT //// FEW070/// 20/14 Q1021 BLU
EHBK - Maastricht
Updated: 16-06-2019 19:25
Partly Cloudy  
Partly Cloudy  
   Wind: WSW 13 km/h
Wind: WSW 13 km/h
Temperature: 21°C
Dew Point: 12°C
Humidity: 57%
Barometer: 1021 hPa
Clouds: Partly Cloudy
Visibility: More than 10 km
Cloud details: Partly Cloudy ft
EHBK 161725Z AUTO 25007KT 210V290 9999 NSC 21/12 Q1021 NOSIG
ELLX - Luxemburg
Updated: 16-06-2019 19:20
Few Clouds  
Few Clouds  
   Wind: WSW 13 km/h
Wind: WSW 13 km/h
Temperature: 21°C
Dew Point: 10°C
Humidity: 50%
Barometer: 1022 hPa
Clouds: Few Clouds
Visibility: More than 10 km
Cloud details: Few Clouds 4300 ft
ELLX 161720Z AUTO 24007KT 200V260 9999 FEW043/// 21/10 Q1022 NOSIG
EBOS - Oostende
Updated: 16-06-2019 19:20
Few Clouds  
Few Clouds  
   Wind: West 25.9 km/h
Wind: West 25.9 km/h
Temperature: 17°C
Dew Point: 13°C
Humidity: 77%
Barometer: 1020 hPa
Clouds: Few Clouds
Visibility: More than 10 km
Cloud details: Few Clouds 4000 ft
EBOS 161720Z 27014KT 9999 FEW040 17/13 Q1020 NOSIG

Script developed by  Saratoga-weather.org Adapted for the template by  Weerstation Leuven

This is an optional block. Switch it on/off in your settings-file: $SITE['bannerTop'] = false; or $SITE['bannerBottom'] = false;

You can display ads, any other important text or photo’s using text / html or PHP code.

You can place one or more at the top and or bottom and it can all be different for content / size .